createdAt,value
2019-02-04T00:01:17.822Z,100216.20
2019-02-04T00:03:44.373Z,100220.59
2019-02-04T00:06:12.110Z,100227.02
2019-02-04T00:08:38.822Z,100229.63
2019-02-04T00:11:05.523Z,100240.97
2019-02-04T00:13:32.207Z,100236.06
2019-02-04T00:15:58.860Z,100240.37
2019-02-04T00:18:25.413Z,100234.80
2019-02-04T00:20:52.170Z,100237.43
2019-02-04T00:23:20.469Z,100243.80
2019-02-04T00:25:47.099Z,100244.84
2019-02-04T00:28:13.709Z,100244.53
2019-02-04T00:30:40.390Z,100246.91
2019-02-04T00:33:08.302Z,100253.91
2019-02-04T00:35:34.958Z,100254.80
2019-02-04T00:38:01.524Z,100259.16
2019-02-04T00:40:28.726Z,100261.56
2019-02-04T00:42:55.409Z,100260.95
2019-02-04T00:45:21.979Z,100264.73
2019-02-04T00:47:48.864Z,100268.75
2019-02-04T00:50:18.828Z,100274.55
2019-02-04T00:52:45.528Z,100268.13
2019-02-04T00:55:12.677Z,100278.52
2019-02-04T00:57:39.851Z,100281.67
2019-02-04T01:00:12.749Z,100273.44
2019-02-04T01:02:39.568Z,100280.97
2019-02-04T01:05:07.007Z,100282.95
2019-02-04T01:07:34.777Z,100286.75
2019-02-04T01:10:01.378Z,100285.55
2019-02-04T01:12:28.043Z,100289.18
2019-02-04T01:14:54.932Z,100284.80
2019-02-04T01:17:21.499Z,100284.48
2019-02-04T01:19:48.150Z,100291.94
2019-02-04T01:22:14.792Z,100290.56
2019-02-04T01:24:41.553Z,100292.95
2019-02-04T01:27:08.347Z,100295.21
2019-02-04T01:29:34.936Z,100301.13
2019-02-04T01:32:02.085Z,100307.63
2019-02-04T01:34:28.699Z,100314.47
2019-02-04T01:36:55.261Z,100322.08
2019-02-04T01:39:21.857Z,100334.05
2019-02-04T01:41:48.434Z,100342.70
2019-02-04T01:44:16.670Z,100340.67
2019-02-04T01:46:43.275Z,100344.59
2019-02-04T01:49:10.377Z,100339.48
2019-02-04T01:51:37.027Z,100330.62
2019-02-04T01:54:03.602Z,100330.31
2019-02-04T01:56:30.191Z,100320.77
2019-02-04T01:58:56.759Z,100320.07
2019-02-04T02:01:23.378Z,100319.19
2019-02-04T02:03:49.973Z,100315.25
2019-02-04T02:06:16.533Z,100319.19
2019-02-04T02:08:43.250Z,100321.25
2019-02-04T02:11:09.974Z,100331.07
2019-02-04T02:13:36.608Z,100334.42
2019-02-04T02:16:03.271Z,100331.77
2019-02-04T02:18:29.995Z,100341.14
2019-02-04T02:20:56.563Z,100352.63
2019-02-04T02:23:23.129Z,100345.34
2019-02-04T02:25:49.704Z,100352.73
2019-02-04T02:28:16.267Z,100350.05
2019-02-04T02:30:42.861Z,100358.65
2019-02-04T02:33:10.917Z,100362.92
2019-02-04T02:35:37.783Z,100366.37
2019-02-04T02:38:05.605Z,100381.39
2019-02-04T02:40:32.492Z,100390.60
2019-02-04T02:43:00.061Z,100401.04
2019-02-04T02:45:27.295Z,100418.38
2019-02-04T02:47:53.983Z,100423.58
2019-02-04T02:50:20.545Z,100412.77
2019-02-04T02:52:47.211Z,100426.41
2019-02-04T02:55:17.007Z,100427.66
2019-02-04T02:57:43.674Z,100435.05
2019-02-04T03:00:15.057Z,100448.91
2019-02-04T03:02:41.800Z,100454.61
2019-02-04T03:05:13.785Z,100459.50
2019-02-04T03:07:41.558Z,100465.20
2019-02-04T03:10:12.552Z,100465.97
2019-02-04T03:12:39.334Z,100480.29
2019-02-04T03:15:09.709Z,100485.13
2019-02-04T03:17:36.459Z,100492.19
2019-02-04T03:20:06.833Z,100498.27
2019-02-04T03:22:33.765Z,100504.67
2019-02-04T03:25:00.721Z,100505.97
2019-02-04T03:27:27.318Z,100510.73
2019-02-04T03:29:54.457Z,100517.64
2019-02-04T03:32:21.045Z,100522.87
2019-02-04T03:34:47.622Z,100523.70
2019-02-04T03:37:14.251Z,100532.88
2019-02-04T03:39:40.808Z,100539.81
2019-02-04T03:42:08.739Z,100539.72
2019-02-04T03:44:35.473Z,100559.68
2019-02-04T03:47:02.140Z,100561.43
2019-02-04T03:49:28.767Z,100561.06
2019-02-04T03:51:55.347Z,100567.09
2019-02-04T03:54:21.893Z,100568.81
2019-02-04T03:56:48.549Z,100574.86
2019-02-04T03:59:15.201Z,100587.84
2019-02-04T04:01:41.813Z,100595.58
2019-02-04T04:04:08.366Z,100600.34
2019-02-04T04:06:35.222Z,100609.91
2019-02-04T04:09:02.039Z,100609.47
2019-02-04T04:11:29.932Z,100604.27
2019-02-04T04:13:56.490Z,100611.64
2019-02-04T04:16:23.086Z,100618.48
2019-02-04T04:18:49.638Z,100628.07
2019-02-04T04:21:16.327Z,100627.17
2019-02-04T04:23:43.372Z,100636.70
2019-02-04T04:26:09.965Z,100643.17
2019-02-04T04:28:36.522Z,100641.48
2019-02-04T04:31:03.155Z,100646.62
2019-02-04T04:33:29.796Z,100650.97
2019-02-04T04:35:56.423Z,100657.48
2019-02-04T04:38:23.051Z,100664.84
2019-02-04T04:40:49.636Z,100673.47
2019-02-04T04:43:16.362Z,100686.06
2019-02-04T04:45:42.928Z,100685.17
2019-02-04T04:48:09.544Z,100688.61
2019-02-04T04:50:36.133Z,100702.89
2019-02-04T04:53:02.696Z,100714.59
2019-02-04T04:55:29.260Z,100721.95
2019-02-04T04:57:55.840Z,100730.59
2019-02-04T05:00:26.610Z,100734.92
2019-02-04T05:02:53.394Z,100743.59
2019-02-04T05:05:20.137Z,100753.08
2019-02-04T05:07:46.693Z,100765.64
2019-02-04T05:10:17.076Z,100767.80
2019-02-04T05:12:43.697Z,100788.98
2019-02-04T05:15:14.985Z,100804.14
2019-02-04T05:17:41.661Z,100798.49
2019-02-04T05:20:12.941Z,100808.43
2019-02-04T05:22:39.724Z,100810.60
2019-02-04T05:25:07.462Z,100822.28
2019-02-04T05:27:34.110Z,100828.77
2019-02-04T05:30:00.692Z,100840.47
2019-02-04T05:32:27.711Z,100839.56
2019-02-04T05:34:57.158Z,100849.97
2019-02-04T05:37:22.876Z,100856.46
2019-02-04T05:39:49.466Z,100868.55
2019-02-04T05:42:16.073Z,100868.55
2019-02-04T05:44:42.830Z,100878.08
2019-02-04T05:47:09.381Z,100880.23
2019-02-04T05:49:36.450Z,100892.75
2019-02-04T05:52:03.023Z,100897.50
2019-02-04T05:54:29.621Z,100910.92
2019-02-04T05:56:56.434Z,100922.19
2019-02-04T05:59:23.067Z,100934.72
2019-02-04T06:01:49.635Z,100942.06
2019-02-04T06:04:16.231Z,100943.36
2019-02-04T06:06:42.787Z,100940.31
2019-02-04T06:09:09.579Z,100945.50
2019-02-04T06:11:36.171Z,100961.12
2019-02-04T06:14:03.164Z,100973.24
2019-02-04T06:16:29.787Z,100982.33
2019-02-04T06:19:00.965Z,100990.13
2019-02-04T06:21:24.945Z,101006.13
2019-02-04T06:23:51.653Z,101011.28
2019-02-04T06:26:18.812Z,101025.14
2019-02-04T06:28:45.524Z,101032.94
2019-02-04T06:31:12.117Z,101032.03
2019-02-04T06:33:38.768Z,101041.17
2019-02-04T06:36:05.448Z,101049.36
2019-02-04T06:38:32.053Z,101054.99
2019-02-04T06:40:58.701Z,101074.52
2019-02-04T06:43:25.697Z,101067.04
2019-02-04T06:45:52.312Z,101080.52
2019-02-04T06:48:18.957Z,101097.90
2019-02-04T06:50:46.747Z,101103.48
2019-02-04T06:53:13.281Z,101109.58
2019-02-04T06:55:40.030Z,101120.34
2019-02-04T06:58:07.871Z,101121.66
2019-02-04T07:00:34.471Z,101137.24
2019-02-04T07:03:01.760Z,101141.56
2019-02-04T07:05:28.510Z,101151.46
2019-02-04T07:07:55.175Z,101163.16
2019-02-04T07:10:25.197Z,101173.53
2019-02-04T07:12:52.654Z,101177.90
2019-02-04T07:15:19.322Z,101180.96
2019-02-04T07:17:46.304Z,101191.77
2019-02-04T07:20:17.225Z,101193.98
2019-02-04T07:22:44.054Z,101211.20
2019-02-04T07:25:13.433Z,101213.43
2019-02-04T07:27:40.307Z,101223.33
2019-02-04T07:30:12.639Z,101235.94
2019-02-04T07:32:39.410Z,101234.92
2019-02-04T07:35:10.269Z,101244.55
2019-02-04T07:37:37.025Z,101252.36
2019-02-04T07:40:09.324Z,101258.83
2019-02-04T07:42:36.072Z,101265.73
2019-02-04T07:45:06.831Z,101274.45
2019-02-04T07:47:33.360Z,101278.71
2019-02-04T07:50:01.010Z,101283.55
2019-02-04T07:52:27.723Z,101283.91
2019-02-04T07:54:54.561Z,101289.59
2019-02-04T07:57:21.335Z,101299.50
2019-02-04T07:59:47.967Z,101303.45
2019-02-04T08:02:15.694Z,101306.91
2019-02-04T08:04:42.256Z,101312.54
2019-02-04T08:07:08.823Z,101316.94
2019-02-04T08:09:35.829Z,101329.44
2019-02-04T08:12:02.385Z,101331.69
2019-02-04T08:14:28.979Z,101339.39
2019-02-04T08:16:55.564Z,101356.77
2019-02-04T08:19:22.132Z,101363.31
2019-02-04T08:21:48.719Z,101366.31
2019-02-04T08:24:15.437Z,101366.63
2019-02-04T08:26:42.120Z,101378.77
2019-02-04T08:29:08.695Z,101376.31
2019-02-04T08:31:35.272Z,101378.14
2019-02-04T08:34:01.853Z,101390.26
2019-02-04T08:36:30.882Z,101402.78
2019-02-04T08:38:57.610Z,101411.02
2019-02-04T08:41:24.301Z,101418.91
2019-02-04T08:43:50.932Z,101421.42
2019-02-04T08:46:17.831Z,101427.66
2019-02-04T08:48:44.708Z,101433.63
2019-02-04T08:51:11.721Z,101430.92
2019-02-04T08:53:38.975Z,101434.43
2019-02-04T08:56:05.949Z,101449.22
2019-02-04T08:58:32.879Z,101454.77
2019-02-04T09:00:59.843Z,101462.30
2019-02-04T09:03:27.772Z,101470.94
2019-02-04T09:05:54.823Z,101486.61
2019-02-04T09:08:21.382Z,101494.06
2019-02-04T09:10:48.639Z,101499.81
2019-02-04T09:13:15.204Z,101498.78
2019-02-04T09:15:41.832Z,101497.39
2019-02-04T09:18:08.531Z,101500.50
2019-02-04T09:20:35.208Z,101504.77
2019-02-04T09:23:01.928Z,101501.61
2019-02-04T09:25:28.961Z,101514.20
2019-02-04T09:27:56.991Z,101526.30
2019-02-04T09:30:25.810Z,101525.86
2019-02-04T09:32:53.315Z,101534.12
2019-02-04T09:35:21.175Z,101537.76
2019-02-04T09:37:50.920Z,101534.10
2019-02-04T09:40:23.510Z,101541.02
2019-02-04T09:42:50.171Z,101545.87
2019-02-04T09:45:16.912Z,101553.15
2019-02-04T09:47:43.596Z,101554.95
2019-02-04T09:50:21.716Z,101557.92
2019-02-04T09:52:44.556Z,101578.17
2019-02-04T09:55:16.051Z,101584.25
2019-02-04T09:57:42.882Z,101584.80
2019-02-04T10:03:16.030Z,101594.72
2019-02-04T10:05:43.161Z,101602.17
2019-02-04T10:08:09.727Z,101599.48
2019-02-04T10:10:36.282Z,101606.89
2019-02-04T10:13:04.488Z,101606.10
2019-02-04T10:15:35.641Z,101612.47
2019-02-04T10:18:03.856Z,101617.78
2019-02-04T10:20:34.334Z,101617.86
2019-02-04T10:22:59.218Z,101625.46
2019-02-04T10:25:30.078Z,101639.38
2019-02-04T10:27:56.766Z,101641.45
2019-02-04T10:30:23.642Z,101644.83
2019-02-04T10:32:50.333Z,101655.97
2019-02-04T10:35:18.149Z,101665.41
2019-02-04T10:37:47.102Z,101673.13
2019-02-04T10:40:18.882Z,101675.78
2019-02-04T10:42:45.661Z,101682.19
2019-02-04T10:45:15.332Z,101691.27
2019-02-04T10:47:42.183Z,101698.56
2019-02-04T10:50:14.467Z,101697.48
2019-02-04T10:52:41.568Z,101694.75
2019-02-04T10:55:09.000Z,101699.50
2019-02-04T10:57:40.620Z,101698.52
2019-02-04T11:00:10.070Z,101709.68
2019-02-04T11:02:36.760Z,101706.62
2019-02-04T11:05:08.394Z,101712.63
2019-02-04T11:07:35.404Z,101710.82
2019-02-04T11:10:07.132Z,101709.23
2019-02-04T11:12:33.803Z,101728.01
2019-02-04T11:15:00.539Z,101732.39
2019-02-04T11:17:27.138Z,101745.22
2019-02-04T11:19:53.842Z,101751.86
2019-02-04T11:22:20.547Z,101767.38
2019-02-04T11:24:47.439Z,101765.39
2019-02-04T11:27:16.952Z,101763.91
2019-02-04T11:29:44.698Z,101770.13
2019-02-04T11:32:11.373Z,101770.92
2019-02-04T11:34:38.034Z,101775.56
2019-02-04T11:37:04.808Z,101777.32
2019-02-04T11:39:31.494Z,101775.97
2019-02-04T11:41:58.607Z,101781.98
2019-02-04T11:44:25.242Z,101784.27
2019-02-04T11:46:52.869Z,101782.00
2019-02-04T11:49:19.524Z,101796.57
2019-02-04T11:51:48.676Z,101791.34
2019-02-04T11:54:15.380Z,101789.59
2019-02-04T11:56:41.991Z,101796.68
2019-02-04T11:59:08.573Z,101793.73
2019-02-04T12:01:35.189Z,101802.18
2019-02-04T12:04:01.892Z,101805.51
2019-02-04T12:06:28.643Z,101807.75
2019-02-04T12:08:55.256Z,101815.91
2019-02-04T12:11:21.800Z,101824.62
2019-02-04T12:13:48.391Z,101835.77
2019-02-04T12:16:15.000Z,101824.62
2019-02-04T12:18:42.306Z,101826.45
2019-02-04T12:21:20.710Z,101832.83
2019-02-04T12:23:37.472Z,101841.08
2019-02-04T12:26:04.116Z,101841.52
2019-02-04T12:28:30.778Z,101846.42
2019-02-04T12:30:57.474Z,101852.79
2019-02-04T12:33:24.973Z,101854.03
2019-02-04T12:35:51.568Z,101848.75
2019-02-04T12:38:18.139Z,101860.34
2019-02-04T12:40:44.726Z,101863.97
2019-02-04T12:43:11.399Z,101870.26
2019-02-04T12:45:41.197Z,101861.21
2019-02-04T12:48:09.164Z,101859.52
2019-02-04T12:50:35.997Z,101865.30
2019-02-04T12:53:03.759Z,101860.18
2019-02-04T12:55:31.903Z,101862.40
2019-02-04T12:57:58.558Z,101856.17
2019-02-04T13:00:28.725Z,101858.77
2019-02-04T13:02:55.405Z,101862.11
2019-02-04T13:05:27.740Z,101864.70
2019-02-04T13:07:54.269Z,101873.02
2019-02-04T13:10:21.327Z,101874.34
2019-02-04T13:12:47.908Z,101863.63
2019-02-04T13:15:18.589Z,101875.31
2019-02-04T13:17:45.186Z,101875.45
2019-02-04T13:20:15.670Z,101882.66
2019-02-04T13:22:48.962Z,101878.05
2019-02-04T13:25:23.986Z,101883.63
2019-02-04T13:27:50.573Z,101890.97
2019-02-04T13:30:21.393Z,101896.24
2019-02-04T13:32:48.003Z,101883.15
2019-02-04T13:35:15.736Z,101880.25
2019-02-04T13:37:42.306Z,101891.88
2019-02-04T13:40:14.346Z,101894.62
2019-02-04T13:42:41.169Z,101903.05
2019-02-04T13:45:13.153Z,101898.23
2019-02-04T13:47:39.795Z,101900.04
2019-02-04T13:50:08.803Z,101904.98
2019-02-04T13:52:35.419Z,101905.73
2019-02-04T13:55:09.046Z,101909.87
2019-02-04T13:57:36.664Z,101913.08
2019-02-04T14:00:09.008Z,101912.15
2019-02-04T14:02:38.255Z,101913.92
2019-02-04T14:05:06.779Z,101921.17
2019-02-04T14:07:34.584Z,101929.65
2019-02-04T14:10:01.422Z,101931.29
2019-02-04T14:12:28.184Z,101946.77
2019-02-04T14:14:54.905Z,101947.84
2019-02-04T14:17:24.294Z,101939.11
2019-02-04T14:19:50.177Z,101940.70
2019-02-04T14:22:17.178Z,101946.66
2019-02-04T14:24:44.189Z,101952.98
2019-02-04T14:27:10.723Z,101948.87
2019-02-04T14:29:37.339Z,101955.49
2019-02-04T14:32:03.992Z,101947.16
2019-02-04T14:34:30.686Z,101958.57
2019-02-04T14:36:57.339Z,101954.55
2019-02-04T14:39:23.985Z,101961.23
2019-02-04T14:41:50.537Z,101960.97
2019-02-04T14:44:19.919Z,101959.43
2019-02-04T14:46:52.636Z,101959.69
2019-02-04T14:49:25.030Z,101960.98
2019-02-04T14:51:57.493Z,101958.55
2019-02-04T14:54:37.593Z,101959.59
2019-02-04T14:57:04.128Z,101951.11
2019-02-04T14:59:32.011Z,101966.69
2019-02-04T15:02:04.344Z,101967.58
2019-02-04T15:04:36.745Z,101966.82
2019-02-04T15:07:05.732Z,101972.87
2019-02-04T15:10:48.976Z,101975.70
2019-02-04T15:13:21.390Z,101976.16
2019-02-04T15:15:53.847Z,101983.19
2019-02-04T15:18:24.243Z,101987.19
2019-02-04T15:20:56.696Z,101994.95
2019-02-04T15:23:28.999Z,101998.67
2019-02-04T15:26:01.433Z,101996.65
2019-02-04T15:28:33.739Z,101998.87
2019-02-04T15:31:07.055Z,101997.45
2019-02-04T15:33:39.398Z,102009.39
2019-02-04T15:36:12.000Z,102014.61
2019-02-04T15:38:47.325Z,102014.94
2019-02-04T15:41:20.179Z,102026.21
2019-02-04T15:43:52.483Z,102037.69
2019-02-04T15:46:24.924Z,102040.80
2019-02-04T15:48:57.353Z,102045.48
2019-02-04T15:51:30.098Z,102050.47
2019-02-04T15:53:58.133Z,102050.87
2019-02-04T15:56:25.345Z,102055.57
2019-02-04T15:58:51.959Z,102052.28
2019-02-04T16:01:18.568Z,102056.93
2019-02-04T16:03:45.264Z,102065.52
2019-02-04T16:06:11.903Z,102077.93
2019-02-04T16:08:38.652Z,102079.72
2019-02-04T16:11:05.752Z,102088.34
2019-02-04T16:13:32.371Z,102086.95
2019-02-04T16:15:58.951Z,102092.97
2019-02-04T16:18:25.682Z,102096.73
2019-02-04T16:20:52.361Z,102101.53
2019-02-04T16:23:18.951Z,102103.53
2019-02-04T16:25:45.542Z,102106.28
2019-02-04T16:28:14.924Z,102108.45
2019-02-04T16:30:41.478Z,102115.38
2019-02-04T16:33:08.024Z,102118.75
2019-02-04T16:35:34.606Z,102123.67
2019-02-04T16:38:01.425Z,102122.34
2019-02-04T16:40:28.166Z,102120.45
2019-02-04T16:42:54.846Z,102127.00
2019-02-04T16:45:23.016Z,102121.37
2019-02-04T16:47:49.977Z,102125.84
2019-02-04T16:50:20.865Z,102131.44
2019-02-04T16:52:48.252Z,102139.87
2019-02-04T16:55:15.290Z,102146.29
2019-02-04T16:57:42.021Z,102149.61
2019-02-04T17:00:48.086Z,102147.22
2019-02-04T17:03:14.673Z,102149.58
2019-02-04T17:05:41.530Z,102152.14
2019-02-04T17:08:08.289Z,102158.41
2019-02-04T17:10:34.874Z,102152.41
2019-02-04T17:13:01.553Z,102157.55
2019-02-04T17:15:28.216Z,102158.27
2019-02-04T17:17:54.909Z,102157.19
2019-02-04T17:20:26.007Z,102160.72
2019-02-04T17:22:53.684Z,102164.87
2019-02-04T17:25:20.291Z,102165.55
2019-02-04T17:27:46.979Z,102166.72
2019-02-04T17:30:18.221Z,102174.33
2019-02-04T17:32:44.896Z,102173.44
2019-02-04T17:35:11.792Z,102165.25
2019-02-04T17:37:38.667Z,102171.48
2019-02-04T17:40:10.971Z,102173.86
2019-02-04T17:42:37.554Z,102173.60
2019-02-04T17:45:09.819Z,102177.66
2019-02-04T17:47:37.110Z,102179.36
2019-02-04T17:50:09.320Z,102181.12
2019-02-04T17:52:35.908Z,102182.44
2019-02-04T17:55:07.795Z,102187.23
2019-02-04T17:57:34.367Z,102184.92
2019-02-04T18:00:57.284Z,102182.69
2019-02-04T18:03:23.821Z,102189.04
2019-02-04T18:05:51.775Z,102174.93
2019-02-04T18:08:18.457Z,102183.84
2019-02-04T18:10:45.009Z,102193.13
2019-02-04T18:13:11.601Z,102186.31
2019-02-04T18:15:38.251Z,102197.62
2019-02-04T18:18:04.840Z,102188.23
2019-02-04T18:20:31.424Z,102188.14
2019-02-04T18:22:58.036Z,102185.20
2019-02-04T18:25:25.280Z,102188.14
2019-02-04T18:27:53.440Z,102193.13
2019-02-04T18:30:23.401Z,102185.08
2019-02-04T18:32:50.331Z,102179.19
2019-02-04T18:35:17.658Z,102180.15
2019-02-04T18:37:44.544Z,102168.50
2019-02-04T18:40:16.957Z,102165.41
2019-02-04T18:42:43.715Z,102167.47
2019-02-04T18:45:16.060Z,102175.66
2019-02-04T18:47:42.935Z,102179.09
2019-02-04T18:50:13.184Z,102175.88
2019-02-04T18:52:40.291Z,102172.92
2019-02-04T18:55:12.806Z,102181.64
2019-02-04T18:57:39.582Z,102180.73
2019-02-04T19:00:12.198Z,102191.83
2019-02-04T19:02:39.335Z,102189.97
2019-02-04T19:05:09.437Z,102187.38
2019-02-04T19:07:36.537Z,102189.10
2019-02-04T19:10:08.332Z,102195.64
2019-02-04T19:12:34.945Z,102198.02
2019-02-04T19:15:01.629Z,102196.23
2019-02-04T19:17:28.187Z,102192.34
2019-02-04T19:19:54.897Z,102204.60
2019-02-04T19:22:21.483Z,102188.41
2019-02-04T19:24:48.508Z,102194.44
2019-02-04T19:27:15.291Z,102196.75
2019-02-04T19:29:41.952Z,102194.31
2019-02-04T19:32:10.791Z,102187.82
2019-02-04T19:34:37.430Z,102183.67
2019-02-04T19:37:04.031Z,102174.70
2019-02-04T19:39:30.604Z,102179.49
2019-02-04T19:41:57.280Z,102180.98
2019-02-04T19:44:24.326Z,102182.39
2019-02-04T19:46:50.998Z,102176.09
2019-02-04T19:49:17.691Z,102183.30
2019-02-04T19:51:44.475Z,102180.40
2019-02-04T19:54:21.272Z,102184.17
2019-02-04T19:56:39.650Z,102176.72
2019-02-04T19:59:06.215Z,102167.01
2019-02-04T20:01:33.062Z,102172.05
2019-02-04T20:03:59.827Z,102171.49
2019-02-04T20:06:28.553Z,102176.37
2019-02-04T20:08:55.227Z,102174.44
2019-02-04T20:11:21.886Z,102176.42
2019-02-04T20:13:48.628Z,102178.26
2019-02-04T20:16:15.296Z,102180.98
2019-02-04T20:18:42.006Z,102196.13
2019-02-04T20:21:10.498Z,102190.66
2019-02-04T20:23:37.192Z,102202.28
2019-02-04T20:26:04.019Z,102198.20
2019-02-04T20:28:30.592Z,102210.05
2019-02-04T20:30:57.205Z,102209.98
2019-02-04T20:33:23.885Z,102213.20
2019-02-04T20:35:50.581Z,102205.50
2019-02-04T20:38:17.318Z,102214.59
2019-02-04T20:40:44.190Z,102216.91
2019-02-04T20:43:10.866Z,102213.78
2019-02-04T20:45:37.605Z,102213.32
2019-02-04T20:48:10.013Z,102216.91
2019-02-04T20:50:41.468Z,102218.88
2019-02-04T20:53:08.268Z,102223.02
2019-02-04T20:55:35.049Z,102224.81
2019-02-04T20:58:01.873Z,102229.91
2019-02-04T21:00:30.199Z,102234.39
2019-02-04T21:02:57.102Z,102232.47
2019-02-04T21:05:23.733Z,102237.26
2019-02-04T21:07:50.611Z,102238.72
2019-02-04T21:10:21.610Z,102237.63
2019-02-04T21:12:48.363Z,102238.06
2019-02-04T21:15:18.699Z,102243.22
2019-02-04T21:17:47.349Z,102244.88
2019-02-04T21:20:17.964Z,102255.69
2019-02-04T21:22:44.653Z,102253.83
2019-02-04T21:25:11.234Z,102252.53
2019-02-04T21:27:37.910Z,102246.38
2019-02-04T21:30:10.816Z,102254.90
2019-02-04T21:32:37.798Z,102254.53
2019-02-04T21:35:05.707Z,102256.92
2019-02-04T21:37:33.487Z,102254.16
2019-02-04T21:40:00.158Z,102260.81
2019-02-04T21:42:26.913Z,102261.45
2019-02-04T21:44:53.545Z,102265.98
2019-02-04T21:47:20.684Z,102270.31
2019-02-04T21:49:47.349Z,102262.84
2019-02-04T21:52:13.941Z,102266.01
2019-02-04T21:54:40.622Z,102266.30
2019-02-04T21:57:07.211Z,102263.41
2019-02-04T21:59:33.823Z,102262.61
2019-02-04T22:02:00.524Z,102270.00
2019-02-04T22:04:27.116Z,102266.98
2019-02-04T22:06:54.087Z,102262.62
2019-02-04T22:09:21.096Z,102263.19
2019-02-04T22:11:47.691Z,102270.63
2019-02-04T22:14:14.776Z,102272.39
2019-02-04T22:16:41.649Z,102267.77
2019-02-04T22:19:08.720Z,102263.17
2019-02-04T22:21:36.615Z,102264.72
2019-02-04T22:24:03.778Z,102267.23
2019-02-04T22:26:30.476Z,102260.71
2019-02-04T22:28:57.126Z,102256.82
2019-02-04T22:31:23.806Z,102264.54
2019-02-04T22:33:50.516Z,102264.94
2019-02-04T22:36:19.685Z,102257.62
2019-02-04T22:38:46.311Z,102259.14
2019-02-04T22:41:12.963Z,102264.36
2019-02-04T22:43:39.750Z,102263.13
2019-02-04T22:46:06.577Z,102259.42
2019-02-04T22:48:33.214Z,102261.23
2019-02-04T22:50:59.807Z,102252.61
2019-02-04T22:53:26.524Z,102251.35
2019-02-04T22:55:53.186Z,102250.78
2019-02-04T22:58:19.852Z,102256.54
2019-02-04T23:00:52.434Z,102247.86
2019-02-04T23:03:23.779Z,102252.25
2019-02-04T23:05:50.526Z,102249.26
2019-02-04T23:08:17.102Z,102240.83
2019-02-04T23:10:43.884Z,102248.65
2019-02-04T23:13:10.557Z,102252.50
2019-02-04T23:15:37.227Z,102253.23
2019-02-04T23:18:04.142Z,102250.31
2019-02-04T23:20:30.850Z,102254.05
2019-02-04T23:22:57.783Z,102249.88
2019-02-04T23:25:24.459Z,102249.63
2019-02-04T23:27:51.045Z,102244.36
2019-02-04T23:30:18.344Z,102247.17
2019-02-04T23:32:45.315Z,102243.94
2019-02-04T23:35:12.031Z,102246.56
2019-02-04T23:37:39.014Z,102243.21
2019-02-04T23:40:09.367Z,102239.43
2019-02-04T23:42:36.116Z,102240.47
2019-02-04T23:45:07.326Z,102243.54
2019-02-04T23:47:33.910Z,102237.05
2019-02-04T23:50:02.008Z,102237.37
2019-02-04T23:52:29.615Z,102236.48
2019-02-04T23:54:56.177Z,102231.76
2019-02-04T23:57:22.723Z,102221.02
2019-02-04T23:59:49.293Z,102230.96
